Amesbury, MA

11:13 AM EDT on September 21, 2014 (GMT -0400)
Lawrence Municipal | Change Station
CLOSE
Current Station
Airport
Location: Lawrence,
Elevation: 148 ft
Nearby Weather Stations

Elev 148 ft 42.72 °N, 71.12 °W | Updated 19 minutes ago

Mostly Cloudy
Mostly Cloudy
70 °F
Feels Like 70 °F
N
4
Wind Variable Wind from WSW

Today
High -- | Low -- °F
--% Chance of Precip.
Yesterday
High -- | Low -- °F
Precip. -- in
6:29 AM 6:42 PM
Waning Crescent, 6% visible
Pressure 29.92 in
Visibility 10.0 miles
Clouds Few 1200 ft
Mostly Cloudy 3600 ft
Dew Point 66 °F
Humidity 88%
Rainfall 0.37 in
Snow Depth Not available.
UV 3 out of 12
Pollen 1.10 out of 12
PM2.5 Good
Flu Activity Not available.
METAR KLWM 211454Z 24003KT 10SM FEW012 BKN036 21/19 A2992

More Conditions Fewer Conditions

Pressure 29.92 in
Visibility 10.0 miles
Clouds Few 1200 ft
Mostly Cloudy 3600 ft
Dew Point 66 °F
Humidity 88%
Rainfall 0.37 in
Snow Depth Not available.
UV 3 out of 12
Pollen 1.10 out of 12
PM2.5 Good
Flu Activity Not available.
METAR KLWM 211454Z 24003KT 10SM FEW012 BKN036 21/19 A2992

More Conditions Fewer Conditions

10-Day Weather Forecast

Almanac

Astronomy

Sep. 21, 2014 Rise Set
Actual Time 6:29 AM EDT 6:42 PM EDT
Civil Twilight 6:01 AM EDT 7:11 PM EDT
Nautical Twilight 5:28 AM EDT 7:44 PM EDT
Astronomical Twilight 4:54 AM EDT 8:18 PM EDT
Moon 3:57 AM EDT 5:19 PM EDT
Length of Visible Light 13h 09m
Length of Day
12h 12m
Tomorrow will be 2m 53s shorter.
Waning Crescent, 6% of the Moon is Illuminated
Today
Waning Crescent
Sep 24
New
Oct 1
First Quarter
Oct 8
Full
Oct 15
Last Quarter

Today's Extremes

State Highs State Lows

Community

WunderPhotos

Upload Photos

1,755,166 photos uploaded!

Nearby

Air Quality

  Air Quality AQ Index Pollutant
Yesterday Good
OZONE
Yesterday Good
PM2.5
Current Good
PM2.5
Sunday Good
PM2.5
Sunday Good
OZONE

Snow Depth

Station Depth Elevation
No new snow has been reported.

Earthquake Activity

City Distance Mag. Time & Date
No recent earthquake activity has been reported nearby.
Minimum magnitude displayed is 2.5.

Coastal Water Temperatures

Place Temperature
Wells, ME 57.0 °F
Portland, ME 57.9 °F

Nearby Weather Stations